Time;durP1;ratioP1;P1;durP2;ratioP2;P2;SDS_P1;SDS_P2;PMS_P1;PMS_P2;Temp;Humidity;BMP_temperature;BMP_pressure;BME280_temperature;BME280_humidity;BME280_pressure;Samples;Min_cycle;Max_cycle;Signal;HPM_P1;HPM_P2
2023/10/04 00:00:27;;;;;;;11.13;7.55;;;;;;;11.95;100.00;63232.53;5011461;28;20224;-80
2023/10/04 00:02:55;;;;;;;8.82;6.80;;;;;;;11.95;100.00;63227.97;5012053;28;20246;-79
2023/10/04 00:05:34;;;;;;;10.75;6.88;;;;;;;11.94;100.00;63231.50;5011128;28;20241;-81
2023/10/04 00:08:01;;;;;;;12.77;7.28;;;;;;;11.94;100.00;63234.56;5009905;28;20219;-78
2023/10/04 00:10:31;;;;;;;12.70;7.88;;;;;;;11.93;100.00;63227.91;5011311;28;20242;-80
2023/10/04 00:12:58;;;;;;;10.68;7.63;;;;;;;11.91;100.00;63226.38;5012307;28;20195;-78
2023/10/04 00:15:29;;;;;;;8.63;7.72;;;;;;;11.84;100.00;63221.16;5005074;28;20225;-79
2023/10/04 00:17:56;;;;;;;10.02;7.50;;;;;;;11.81;100.00;63216.00;5012183;28;20215;-79
2023/10/04 00:20:31;;;;;;;12.05;7.07;;;;;;;11.84;100.00;63216.06;5009949;28;20527;-80
2023/10/04 00:22:59;;;;;;;15.40;8.05;;;;;;;11.83;100.00;63217.56;5011197;28;20195;-79
2023/10/04 00:25:27;;;;;;;9.77;6.85;;;;;;;11.79;100.00;63215.97;4996133;28;20224;-78
2023/10/04 00:27:56;;;;;;;8.60;6.90;;;;;;;11.76;100.00;63210.81;5011590;28;20230;-79
2023/10/04 00:30:25;;;;;;;11.02;7.30;;;;;;;11.73;100.00;63209.75;4999396;28;20275;-79
2023/10/04 00:32:55;;;;;;;9.20;6.65;;;;;;;11.73;100.00;63209.75;5008221;28;20203;-78
2023/10/04 00:35:25;;;;;;;8.85;7.05;;;;;;;11.66;100.00;63199.94;4989943;28;20288;-77
2023/10/04 00:37:56;;;;;;;11.77;8.05;;;;;;;11.65;100.00;63201.97;5006106;28;20231;-77
2023/10/04 00:40:27;;;;;;;11.10;6.88;;;;;;;11.60;100.00;63199.31;5002847;28;20290;-78
2023/10/04 00:42:55;;;;;;;13.27;8.32;;;;;;;11.58;100.00;63192.16;5014359;28;20539;-77
2023/10/04 00:45:24;;;;;;;9.15;7.70;;;;;;;11.60;100.00;63196.78;5008229;28;20286;-77
2023/10/04 00:47:56;;;;;;;9.57;7.38;;;;;;;11.60;100.00;63194.75;4999583;28;20208;-77
2023/10/04 00:50:27;;;;;;;10.07;7.35;;;;;;;11.62;100.00;63198.84;5005913;28;20219;-77
2023/10/04 00:53:03;;;;;;;12.07;7.72;;;;;;;11.64;100.00;63195.84;5008776;28;20394;-78
2023/10/04 00:55:34;;;;;;;10.70;7.50;;;;;;;11.59;100.00;63190.66;5008357;28;20230;-76
2023/10/04 00:58:05;;;;;;;11.05;7.03;;;;;;;11.58;100.00;63195.22;5001506;28;20238;-77
2023/10/04 01:00:33;;;;;;;12.30;8.38;;;;;;;11.54;100.00;63188.53;5006630;28;20223;-78
2023/10/04 01:03:02;;;;;;;8.40;7.53;;;;;;;11.50;100.00;63181.84;5008166;28;20207;-77
2023/10/04 01:05:31;;;;;;;10.63;7.40;;;;;;;11.46;100.00;63182.78;5006366;28;20235;-78
2023/10/04 01:08:00;;;;;;;10.27;7.57;;;;;;;11.41;100.00;63172.50;5003970;28;20203;-79
2023/10/04 01:10:31;;;;;;;11.50;7.78;;;;;;;11.38;100.00;63171.44;4987844;28;20228;-78
2023/10/04 01:12:59;;;;;;;11.80;7.93;;;;;;;11.41;100.00;63175.06;4991935;28;20214;-78
2023/10/04 01:15:31;;;;;;;8.88;7.90;;;;;;;11.41;100.00;63175.06;5005422;28;20234;-78
2023/10/04 01:18:00;;;;;;;12.70;7.75;;;;;;;11.39;100.00;63175.00;5010181;28;20231;-78
2023/10/04 01:20:30;;;;;;;9.50;7.30;;;;;;;11.39;100.00;63169.91;5006281;28;20215;-77
2023/10/04 01:23:01;;;;;;;11.88;8.07;;;;;;;11.31;100.00;63162.16;4994645;28;20211;-77
2023/10/04 01:25:31;;;;;;;12.75;8.07;;;;;;;11.35;100.00;63168.34;5007071;28;20250;-79
2023/10/04 01:27:59;;;;;;;11.02;7.50;;;;;;;11.34;100.00;63170.38;5007410;28;20239;-78
2023/10/04 01:30:26;;;;;;;9.63;7.28;;;;;;;11.37;100.00;63172.97;5000091;28;20255;-78
2023/10/04 01:32:54;;;;;;;9.73;7.07;;;;;;;11.31;100.00;63167.25;5000998;28;20211;-78
2023/10/04 01:35:24;;;;;;;11.40;7.93;;;;;;;11.38;100.00;63171.44;5007544;28;20219;-79
2023/10/04 01:37:53;;;;;;;10.85;8.38;;;;;;;11.37;100.00;63170.91;5006736;28;20424;-78
2023/10/04 01:40:26;;;;;;;11.30;7.68;;;;;;;11.32;100.00;63167.78;5006948;28;20235;-78
2023/10/04 01:42:55;;;;;;;11.50;8.02;;;;;;;11.35;100.00;63171.41;5001873;28;20279;-77
2023/10/04 01:45:22;;;;;;;14.98;8.18;;;;;;;11.37;100.00;63172.97;5003119;28;20400;-79
2023/10/04 01:47:51;;;;;;;11.05;7.45;;;;;;;11.37;100.00;63170.41;5005036;28;20207;-77
2023/10/04 01:50:18;;;;;;;10.05;6.35;;;;;;;11.37;100.00;63167.88;5003980;28;20410;-76
2023/10/04 01:52:47;;;;;;;11.93;7.32;;;;;;;11.37;100.00;63176.00;5002176;28;20524;-78
2023/10/04 01:55:17;;;;;;;10.20;7.82;;;;;;;11.35;100.00;63175.97;5003950;28;20223;-79
2023/10/04 01:57:46;;;;;;;8.48;7.07;;;;;;;11.31;100.00;63164.19;5000573;28;20199;-79
2023/10/04 02:00:17;;;;;;;11.60;7.63;;;;;;;11.26;100.00;63161.56;5004226;28;20223;-77
2023/10/04 02:02:46;;;;;;;10.98;7.60;;;;;;;11.25;100.00;63160.53;5002768;28;20199;-78
2023/10/04 02:05:24;;;;;;;12.50;7.97;;;;;;;11.26;100.00;63161.56;5003559;28;20215;-78
2023/10/04 02:07:53;;;;;;;10.70;8.02;;;;;;;11.20;100.00;63155.84;4997710;28;20206;-76
2023/10/04 02:10:21;;;;;;;11.07;8.02;;;;;;;11.17;100.00;63147.66;5000141;28;20227;-77
2023/10/04 02:12:53;;;;;;;11.68;7.78;;;;;;;11.12;100.00;63147.06;5006006;28;20230;-77
2023/10/04 02:15:20;;;;;;;10.50;7.95;;;;;;;11.08;100.00;63140.38;5004029;28;20262;-77
2023/10/04 02:17:49;;;;;;;12.95;7.63;;;;;;;11.06;100.00;63146.44;5000851;28;20199;-77
2023/10/04 02:20:21;;;;;;;10.98;7.43;;;;;;;11.04;100.00;63141.31;5001751;28;20249;-78
2023/10/04 02:22:48;;;;;;;7.72;6.90;;;;;;;10.95;100.00;63124.88;5001976;28;20207;-77
2023/10/04 02:25:17;;;;;;;10.63;7.18;;;;;;;10.96;100.00;63130.50;5004587;28;20243;-78
2023/10/04 02:27:45;;;;;;;10.88;7.85;;;;;;;10.94;100.00;63126.38;5000096;28;20358;-77
2023/10/04 02:30:15;;;;;;;16.25;8.32;;;;;;;10.91;100.00;63125.31;5004253;28;20259;-79
2023/10/04 02:32:43;;;;;;;12.82;7.75;;;;;;;10.92;100.00;63126.34;5004055;28;20202;-78
2023/10/04 02:35:21;;;;;;;13.02;7.88;;;;;;;10.87;100.00;63119.13;5004073;28;20266;-78
2023/10/04 02:37:53;;;;;;;21.13;9.13;;;;;;;10.93;100.00;63124.84;5003342;28;20199;-79
2023/10/04 02:40:22;;;;;;;12.15;7.55;;;;;;;10.88;100.00;63122.72;5006084;28;20226;-77
2023/10/04 02:42:53;;;;;;;13.45;8.02;;;;;;;10.88;100.00;63125.28;5001650;28;20203;-79
2023/10/04 02:45:24;;;;;;;14.18;8.60;;;;;;;10.87;100.00;63126.28;5002604;28;20227;-78
2023/10/04 02:47:52;;;;;;;9.85;7.38;;;;;;;10.88;100.00;63122.72;5004811;28;20208;-79
2023/10/04 02:50:21;;;;;;;9.48;7.60;;;;;;;10.89;100.00;63120.72;5006113;28;20234;-77
2023/10/04 02:52:50;;;;;;;11.20;7.90;;;;;;;10.91;100.00;63128.38;5006896;28;20199;-77
2023/10/04 02:55:19;;;;;;;19.27;7.97;;;;;;;10.90;100.00;63126.81;5004817;28;20219;-77
2023/10/04 02:57:47;;;;;;;9.25;7.68;;;;;;;10.83;100.00;63114.47;5002120;28;20213;-77
2023/10/04 03:00:19;;;;;;;10.27;7.93;;;;;;;10.84;100.00;63112.97;5005462;28;20230;-79
2023/10/04 03:02:49;;;;;;;13.48;8.25;;;;;;;10.79;100.00;63115.97;5006966;28;20226;-76
2023/10/04 03:05:18;;;;;;;12.60;8.35;;;;;;;10.79;100.00;63113.41;5003822;28;20291;-77
2023/10/04 03:07:46;;;;;;;12.85;7.70;;;;;;;10.85;100.00;63116.56;4993090;28;20202;-78
2023/10/04 03:10:23;;;;;;;10.65;7.88;;;;;;;10.84;100.00;63116.03;4994112;28;20223;-77
2023/10/04 03:12:53;;;;;;;14.02;8.55;;;;;;;10.91;100.00;63125.31;4995221;28;20412;-77
2023/10/04 03:15:23;;;;;;;9.63;7.25;;;;;;;10.96;100.00;63128.47;5010108;28;20238;-77
2023/10/04 03:17:52;;;;;;;13.00;8.20;;;;;;;10.96;100.00;63136.09;5001768;28;20199;-78
2023/10/04 03:20:23;;;;;;;10.90;8.27;;;;;;;11.02;100.00;63132.13;5007756;28;20246;-79
2023/10/04 03:22:55;;;;;;;10.88;7.82;;;;;;;10.98;100.00;63130.53;5007264;28;20264;-79
2023/10/04 03:25:26;;;;;;;12.82;7.55;;;;;;;10.96;100.00;63130.50;5004370;28;20235;-79
2023/10/04 03:27:55;;;;;;;15.75;9.00;;;;;;;10.95;100.00;63127.44;4992207;28;20192;-79
2023/10/04 03:30:22;;;;;;;12.48;8.73;;;;;;;10.90;100.00;63127.34;4997670;28;20221;-77
2023/10/04 03:32:52;;;;;;;11.70;8.10;;;;;;;10.94;100.00;63126.38;4996930;28;20200;-78
2023/10/04 03:35:21;;;;;;;12.60;8.68;;;;;;;10.90;100.00;63121.72;4993032;28;20247;-79
2023/10/04 03:37:54;;;;;;;12.57;8.45;;;;;;;10.93;100.00;63127.91;4992331;28;20220;-79
2023/10/04 03:40:22;;;;;;;12.88;8.32;;;;;;;10.92;100.00;63126.88;5002404;28;20242;-81
2023/10/04 03:42:49;;;;;;;12.75;8.73;;;;;;;10.90;100.00;63121.72;5008816;28;20215;-79
2023/10/04 03:45:20;;;;;;;10.75;8.75;;;;;;;10.88;100.00;63119.66;5011919;28;20223;-78
2023/10/04 03:47:50;;;;;;;14.10;9.93;;;;;;;10.88;100.00;63122.72;5007916;28;20199;-78
2023/10/04 03:50:19;;;;;;;11.32;9.10;;;;;;;10.83;100.00;63122.13;5010060;28;20235;-77
2023/10/04 03:52:47;;;;;;;11.98;9.15;;;;;;;10.84;100.00;63118.06;5009188;28;20196;-78
2023/10/04 03:55:15;;;;;;;16.35;9.68;;;;;;;10.85;100.00;63116.56;5005242;28;20216;-77
2023/10/04 03:57:44;;;;;;;13.57;8.63;;;;;;;10.84;100.00;63116.03;5007290;28;20512;-78
2023/10/04 04:00:17;;;;;;;12.73;8.80;;;;;;;10.82;100.00;63113.97;5006323;28;20258;-78
2023/10/04 04:02:46;;;;;;;15.98;9.15;;;;;;;10.73;100.00;63107.22;4997057;28;20278;-79
2023/10/04 04:05:14;;;;;;;15.15;8.70;;;;;;;10.73;100.00;63104.13;4998632;28;20321;-79
2023/10/04 04:07:43;;;;;;;13.05;9.23;;;;;;;10.66;100.00;63097.41;4991611;28;20395;-79
2023/10/04 04:10:14;;;;;;;14.40;9.38;;;;;;;10.62;100.00;63092.75;5004416;28;20291;-76
2023/10/04 04:12:48;;;;;;;16.02;9.50;;;;;;;10.61;100.00;63089.69;5010072;28;20202;-77
2023/10/04 04:15:17;;;;;;;15.15;8.85;;;;;;;10.69;100.00;63097.97;4997715;28;20286;-79
2023/10/04 04:17:44;;;;;;;16.08;8.65;;;;;;;10.55;100.00;63082.94;5009537;28;20200;-80
2023/10/04 04:20:18;;;;;;;12.88;9.70;;;;;;;10.67;100.00;63098.44;5008116;28;20242;-79
2023/10/04 04:22:50;;;;;;;18.17;9.23;;;;;;;10.65;100.00;63100.97;5003812;28;20396;-79
2023/10/04 04:25:19;;;;;;;11.88;8.35;;;;;;;10.68;100.00;63096.41;5012364;28;20290;-80
2023/10/04 04:27:49;;;;;;;10.10;8.48;;;;;;;10.66;100.00;63097.41;5004940;28;20191;-79
2023/10/04 04:30:23;;;;;;;11.80;8.43;;;;;;;10.61;100.00;63091.72;5010090;28;20219;-78
2023/10/04 04:32:53;;;;;;;13.13;8.48;;;;;;;10.65;100.00;63093.81;5007818;28;20223;-78
2023/10/04 04:35:34;;;;;;;13.95;8.63;;;;;;;10.62;100.00;63093.28;5006230;28;20219;-77
2023/10/04 04:38:12;;;;;;;12.65;7.97;;;;;;;10.62;100.00;63095.28;4990438;28;20212;-78
2023/10/04 04:40:44;;;;;;;14.20;10.27;;;;;;;10.63;100.00;63091.75;4998099;28;20234;-77
2023/10/04 04:43:25;;;;;;;19.02;8.93;;;;;;;10.65;100.00;63096.38;5010194;28;20270;-78
2023/10/04 04:45:55;;;;;;;11.63;8.77;;;;;;;10.68;100.00;63101.50;5006240;28;20234;-78
2023/10/04 04:48:24;;;;;;;11.82;8.80;;;;;;;10.67;100.00;63100.47;4990034;28;20247;-79
2023/10/04 04:50:52;;;;;;;11.95;8.90;;;;;;;10.72;100.00;63103.09;5001462;28;20223;-78
2023/10/04 04:53:27;;;;;;;13.82;8.98;;;;;;;10.71;100.00;63107.16;4998598;28;20206;-81
2023/10/04 04:55:55;;;;;;;12.90;9.55;;;;;;;10.77;100.00;63106.25;4991026;28;20314;-77
2023/10/04 04:58:25;;;;;;;14.35;8.43;;;;;;;10.85;100.00;63119.09;5000103;28;20195;-79
2023/10/04 05:00:55;;;;;;;13.45;9.80;;;;;;;10.89;100.00;63123.25;5004296;28;20556;-79
2023/10/04 05:03:24;;;;;;;12.15;8.65;;;;;;;10.95;100.00;63129.47;5003715;28;20398;-78
2023/10/04 05:05:51;;;;;;;18.15;9.52;;;;;;;11.03;100.00;63137.72;5004349;28;20245;-77
2023/10/04 05:08:18;;;;;;;13.55;10.07;;;;;;;11.16;100.00;63146.09;5005963;28;20203;-79
2023/10/04 05:10:49;;;;;;;15.68;10.18;;;;;;;11.26;100.00;63161.56;5006485;28;20226;-78
2023/10/04 05:13:18;;;;;;;15.02;8.80;;;;;;;11.32;100.00;63168.28;5005932;28;20219;-78
2023/10/04 05:15:45;;;;;;;12.57;9.00;;;;;;;11.40;100.00;63171.50;5002267;28;20247;-78
2023/10/04 05:18:15;;;;;;;16.23;10.52;;;;;;;11.48;100.00;63181.78;4995635;28;20223;-77
2023/10/04 05:20:45;;;;;;;13.75;9.13;;;;;;;11.55;100.00;63192.13;4995315;28;20238;-78
2023/10/04 05:23:12;;;;;;;17.52;9.35;;;;;;;11.61;100.00;63195.28;5003758;28;20211;-78
2023/10/04 05:25:39;;;;;;;14.73;9.50;;;;;;;11.62;100.00;63198.84;4992731;28;20220;-77
2023/10/04 05:28:11;;;;;;;13.20;8.73;;;;;;;11.67;100.00;63204.03;5000065;28;20202;-78
2023/10/04 05:30:41;;;;;;;12.48;9.63;;;;;;;11.78;100.00;63215.44;5007684;28;20223;-78
2023/10/04 05:33:08;;;;;;;16.10;10.25;;;;;;;11.89;100.00;63219.19;5007903;28;20200;-80
2023/10/04 05:35:35;;;;;;;15.18;10.00;;;;;;;11.97;100.00;63232.59;5007129;28;20266;-78
2023/10/04 05:38:04;;;;;;;14.88;10.23;;;;;;;12.10;100.00;63245.53;5007218;28;20203;-81
2023/10/04 05:40:31;;;;;;;22.88;10.35;;;;;;;12.06;100.00;63243.94;4988462;28;20232;-78
2023/10/04 05:42:59;;;;;;;18.70;10.07;;;;;;;12.11;100.00;63244.56;4999189;28;20210;-79
2023/10/04 05:45:27;;;;;;;14.40;10.35;;;;;;;12.23;100.00;63259.53;5005387;28;20225;-77
2023/10/04 05:47:55;;;;;;;15.63;10.50;;;;;;;12.14;100.00;63250.22;4994058;28;20203;-78
2023/10/04 05:50:23;;;;;;;14.15;10.75;;;;;;;12.28;100.00;63267.28;5003030;28;20322;-79
2023/10/04 05:52:51;;;;;;;15.43;10.52;;;;;;;12.39;100.00;63278.16;5001612;28;20215;-79
2023/10/04 05:55:19;;;;;;;13.95;10.55;;;;;;;12.40;100.00;63279.72;5004500;28;20220;-78
2023/10/04 05:57:50;;;;;;;23.40;12.00;;;;;;;12.57;100.00;63294.25;5007086;28;20243;-78
2023/10/04 06:00:27;;;;;;;22.30;11.95;;;;;;;12.64;100.00;63304.06;5006570;28;20255;-79
2023/10/04 06:02:58;;;;;;;20.13;11.05;;;;;;;12.68;100.00;63306.19;4995757;28;20295;-78
2023/10/04 06:05:28;;;;;;;22.90;11.13;;;;;;;12.80;100.00;63315.56;4999833;28;20223;-78
2023/10/04 06:07:56;;;;;;;19.63;11.23;;;;;;;12.95;100.00;63338.25;4997415;28;20224;-79
2023/10/04 06:10:24;;;;;;;21.77;11.65;;;;;;;12.98;100.00;63343.94;5004280;28;20227;-78
2023/10/04 06:12:56;;;;;;;20.50;11.85;;;;;;;12.98;100.00;63336.28;5005520;28;20204;-78
2023/10/04 06:15:24;;;;;;;23.60;12.25;;;;;;;13.13;100.00;63354.91;5005318;28;20229;-78
2023/10/04 06:17:52;;;;;;;19.08;10.73;;;;;;;13.26;100.00;63368.41;5009014;28;20341;-79
2023/10/04 06:20:24;;;;;;;26.45;13.25;;;;;;;13.42;100.00;63381.94;5005985;28;20243;-79
2023/10/04 06:22:52;;;;;;;20.60;12.65;;;;;;;13.53;100.00;63393.84;5006573;28;20225;-77
2023/10/04 06:25:22;;;;;;;20.73;13.25;;;;;;;13.51;100.00;63393.81;5001163;28;20286;-78
2023/10/04 06:27:50;;;;;;;23.05;12.52;;;;;;;13.44;100.00;63387.06;5001140;28;20266;-78
2023/10/04 06:30:22;;;;;;;21.30;12.23;;;;;;;13.54;100.00;63396.94;5004881;28;20255;-78
2023/10/04 06:32:50;;;;;;;22.63;13.85;;;;;;;13.47;100.00;63390.19;5006929;28;20223;-77
2023/10/04 06:35:18;;;;;;;28.58;14.10;;;;;;;13.51;100.00;63391.78;5008319;28;20418;-78
2023/10/04 06:37:46;;;;;;;25.58;14.15;;;;;;;13.55;100.00;63395.41;4994782;28;20226;-80
2023/10/04 06:40:19;;;;;;;30.63;15.63;;;;;;;13.68;100.00;63414.03;5005020;28;20235;-78
2023/10/04 06:42:47;;;;;;;31.20;15.90;;;;;;;13.68;100.00;63406.34;5005273;28;20200;-80
2023/10/04 06:45:14;;;;;;;32.90;15.30;;;;;;;13.65;100.00;63405.81;5011216;28;20262;-78
2023/10/04 06:47:44;;;;;;;41.35;15.77;;;;;;;13.77;100.00;63418.75;5007739;28;20231;-78
2023/10/04 06:50:15;;;;;;;34.83;15.88;;;;;;;13.84;100.00;63428.06;5007587;28;20587;-78
2023/10/04 06:52:43;;;;;;;24.08;13.93;;;;;;;13.86;100.00;63427.59;5008837;28;20438;-78
2023/10/04 06:55:15;;;;;;;20.70;13.45;;;;;;;13.90;100.00;63429.19;5008645;28;20387;-78
2023/10/04 06:57:42;;;;;;;32.10;14.60;;;;;;;13.71;100.00;63417.66;5008677;28;20202;-77
2023/10/04 07:00:14;;;;;;;38.05;15.23;;;;;;;13.76;100.00;63415.19;5009370;28;20231;-77
2023/10/04 07:02:43;;;;;;;22.42;15.10;;;;;;;13.85;100.00;63429.13;5010377;28;20199;-79
2023/10/04 07:05:13;;;;;;;23.20;13.63;;;;;;;13.89;99.67;63428.16;5007828;28;20231;-77
2023/10/04 07:07:40;;;;;;;25.77;14.23;;;;;;;13.96;98.51;63437.47;5008932;28;20206;-78
2023/10/04 07:10:09;;;;;;;25.92;13.48;;;;;;;14.04;98.16;63443.72;5010684;28;20242;-77
2023/10/04 07:12:38;;;;;;;23.63;12.73;;;;;;;14.02;97.24;63446.22;5008866;28;20206;-78
2023/10/04 07:15:06;;;;;;;19.88;12.30;;;;;;;14.14;96.17;63459.22;5007171;28;20222;-78
2023/10/04 07:17:34;;;;;;;19.85;12.98;;;;;;;14.30;96.03;63473.28;5010537;28;20567;-77
2023/10/04 07:20:06;;;;;;;24.80;13.10;;;;;;;14.41;95.41;63479.59;5009145;28;20297;-78
2023/10/04 07:22:33;;;;;;;20.20;12.80;;;;;;;14.60;94.82;63504.44;5010334;28;20187;-77
2023/10/04 07:25:01;;;;;;;20.38;12.70;;;;;;;14.62;93.43;63508.56;5006442;28;20227;-80
2023/10/04 07:27:28;;;;;;;19.10;11.63;;;;;;;14.58;91.99;63504.91;5008220;28;20206;-81
2023/10/04 07:29:56;;;;;;;24.77;13.05;;;;;;;14.81;93.06;63531.38;5003188;28;20219;-76
2023/10/04 07:32:24;;;;;;;21.20;12.88;;;;;;;15.01;91.14;63547.03;5001114;28;20394;-78
2023/10/04 07:34:51;;;;;;;21.83;12.90;;;;;;;15.20;90.15;63568.84;4999845;28;20586;-79
2023/10/04 07:37:18;;;;;;;19.63;13.02;;;;;;;15.30;88.50;63573.56;4998851;28;20215;-78
2023/10/04 07:39:45;;;;;;;16.75;13.18;;;;;;;15.40;87.99;63586.53;4997687;28;20469;-78
2023/10/04 07:42:12;;;;;;;28.85;11.80;;;;;;;15.51;85.71;63600.56;4998708;28;20226;-77
2023/10/04 07:44:40;;;;;;;22.73;12.55;;;;;;;15.60;85.17;63605.28;4995141;28;20231;-78
2023/10/04 07:47:08;;;;;;;22.80;11.65;;;;;;;15.77;84.39;63627.59;5001119;28;20199;-79
2023/10/04 07:49:37;;;;;;;32.58;11.55;;;;;;;15.69;82.52;63616.69;4995101;28;20269;-78
2023/10/04 07:52:05;;;;;;;18.40;12.50;;;;;;;15.78;82.91;63623.47;5006847;28;20223;-78
2023/10/04 07:54:34;;;;;;;21.80;11.52;;;;;;;15.96;82.54;63644.78;5006392;28;20219;-78
2023/10/04 07:57:03;;;;;;;20.20;11.95;;;;;;;16.05;79.39;63654.63;4997193;28;20200;-78
2023/10/04 07:59:30;;;;;;;14.40;11.10;;;;;;;16.25;78.83;63676.97;4994040;28;20227;-79
2023/10/04 08:01:58;;;;;;;17.35;11.27;;;;;;;16.31;77.35;63683.22;4998007;28;22456;-78
2023/10/04 08:04:26;;;;;;;12.75;10.52;;;;;;;16.36;76.60;63691.50;4993737;28;20451;-78
2023/10/04 08:06:54;;;;;;;20.50;11.68;;;;;;;16.38;76.43;63691.00;5000396;28;20199;-78
2023/10/04 08:09:22;;;;;;;16.95;11.07;;;;;;;16.51;75.39;63698.91;5002781;28;20215;-81
2023/10/04 08:11:52;;;;;;;20.30;11.15;;;;;;;16.73;75.45;63721.78;5003123;28;20207;-81
2023/10/04 08:14:21;;;;;;;17.98;10.13;;;;;;;16.87;73.90;63739.44;5002541;28;20210;-79
2023/10/04 08:16:52;;;;;;;17.48;11.80;;;;;;;17.00;71.62;63755.53;5000356;28;20207;-79
2023/10/04 08:19:20;;;;;;;19.80;12.32;;;;;;;17.15;70.94;63771.16;4997348;28;20492;-79
2023/10/04 08:21:49;;;;;;;14.00;10.70;;;;;;;17.31;69.38;63787.81;4998761;28;20309;-77
2023/10/04 08:24:17;;;;;;;19.15;12.73;;;;;;;17.13;69.14;63771.66;5001965;28;20242;-77
2023/10/04 08:26:46;;;;;;;19.15;12.25;;;;;;;17.00;69.50;63750.41;5000262;28;20206;-78
2023/10/04 08:29:13;;;;;;;17.67;10.52;;;;;;;16.93;71.25;63748.25;4995777;28;20226;-78
2023/10/04 08:31:40;;;;;;;17.60;11.15;;;;;;;17.15;73.02;63770.66;5000660;28;20226;-78
2023/10/04 08:34:08;;;;;;;20.27;10.40;;;;;;;17.16;70.79;63769.63;4998527;28;20198;-77
2023/10/04 08:36:35;;;;;;;18.02;11.45;;;;;;;17.19;69.13;63772.75;4998034;28;20196;-78
2023/10/04 08:39:10;;;;;;;19.73;11.70;;;;;;;17.49;68.18;63808.09;4998995;28;20241;-77
2023/10/04 08:41:37;;;;;;;17.25;11.40;;;;;;;17.62;68.16;63819.06;4994522;28;20234;-78
2023/10/04 08:44:07;;;;;;;17.00;11.02;;;;;;;17.65;68.87;63822.19;4999232;28;20210;-78
2023/10/04 08:46:37;;;;;;;17.63;10.07;;;;;;;17.60;69.36;63817.50;4996585;28;20385;-80
2023/10/04 08:49:09;;;;;;;15.75;10.65;;;;;;;17.91;69.76;63849.78;4995383;28;20200;-80
2023/10/04 08:51:48;;;;;;;25.23;11.27;;;;;;;18.15;68.15;63872.22;4999603;28;20242;-80
2023/10/04 08:54:24;;;;;;;15.02;9.88;;;;;;;18.25;67.56;63887.78;5000465;28;20218;-79
2023/10/04 08:56:57;;;;;;;17.98;8.93;;;;;;;18.56;66.62;63921.66;5001047;28;20198;-80
2023/10/04 08:59:26;;;;;;;20.23;9.73;;;;;;;18.51;61.42;63908.69;4997729;28;20238;-79
2023/10/04 09:01:54;;;;;;;11.82;8.95;;;;;;;18.56;61.15;63916.47;5002451;28;20238;-78
2023/10/04 09:04:24;;;;;;;18.83;9.45;;;;;;;18.55;62.17;63918.03;4996961;28;20230;-79
2023/10/04 09:06:53;;;;;;;13.77;9.65;;;;;;;18.75;60.23;63936.28;4994020;28;20199;-78
2023/10/04 09:09:22;;;;;;;13.18;9.55;;;;;;;18.89;59.56;63951.41;5004112;28;20227;-79
2023/10/04 09:11:49;;;;;;;17.88;9.85;;;;;;;19.04;58.04;63967.03;4997816;28;20258;-77
2023/10/04 09:14:17;;;;;;;14.57;10.20;;;;;;;19.09;58.03;63971.72;4998707;28;20585;-80
2023/10/04 09:16:44;;;;;;;19.85;10.10;;;;;;;19.28;57.61;63989.47;4996437;28;20215;-79
2023/10/04 09:19:17;;;;;;;17.75;10.30;;;;;;;19.31;56.86;64000.38;4998567;28;20218;-78
2023/10/04 09:21:44;;;;;;;16.25;10.75;;;;;;;19.30;56.88;63996.22;4998251;28;20277;-78
2023/10/04 09:24:13;;;;;;;13.20;9.60;;;;;;;19.32;55.60;63998.84;4997704;28;20207;-77
2023/10/04 09:26:53;;;;;;;13.07;9.45;;;;;;;19.13;56.11;63978.50;5000593;28;20198;-77
2023/10/04 09:29:30;;;;;;;19.15;10.00;;;;;;;19.26;56.61;63992.56;4995111;28;20232;-78
2023/10/04 09:31:57;;;;;;;19.77;9.77;;;;;;;19.47;56.06;64008.78;4996872;28;20537;-78
2023/10/04 09:34:25;;;;;;;17.45;10.10;;;;;;;19.60;54.78;64021.84;4992581;28;20226;-79
2023/10/04 09:36:53;;;;;;;16.67;9.70;;;;;;;19.77;54.69;64042.16;4996121;28;20207;-79
2023/10/04 09:39:24;;;;;;;14.02;9.50;;;;;;;19.99;52.78;64065.63;4999733;28;20286;-79
2023/10/04 09:41:54;;;;;;;21.88;10.00;;;;;;;20.15;54.48;64084.91;4997887;28;20246;-78
2023/10/04 09:44:24;;;;;;;13.50;9.90;;;;;;;20.37;54.37;64104.75;4999857;28;20253;-78
2023/10/04 09:46:56;;;;;;;13.95;8.82;;;;;;;20.52;52.97;64123.53;5000918;28;20245;-80
2023/10/04 09:49:29;;;;;;;18.00;10.20;;;;;;;20.76;52.11;64140.28;4995921;28;20222;-79
2023/10/04 09:51:57;;;;;;;16.80;9.95;;;;;;;20.77;49.28;64143.41;4995651;28;20207;-78
2023/10/04 09:54:25;;;;;;;13.32;10.20;;;;;;;20.73;49.34;64139.75;4997946;28;20402;-78
2023/10/04 09:56:55;;;;;;;17.25;9.77;;;;;;;20.78;49.53;64147.06;5000731;28;20213;-78
2023/10/04 09:59:23;;;;;;;19.58;9.65;;;;;;;21.00;51.17;64172.63;4999250;28;20273;-79
2023/10/04 10:01:55;;;;;;;22.63;9.50;;;;;;;21.20;49.38;64190.91;4999635;28;20249;-79
2023/10/04 10:04:27;;;;;;;14.15;9.32;;;;;;;21.20;48.76;64190.91;5003667;28;20203;-80
2023/10/04 10:07:08;;;;;;;16.33;9.38;;;;;;;21.22;48.67;64193.00;5001631;28;20199;-81
2023/10/04 10:09:37;;;;;;;17.25;10.05;;;;;;;21.24;47.92;64197.69;5002645;28;20278;-78
2023/10/04 10:12:06;;;;;;;14.73;9.73;;;;;;;21.20;48.42;64188.84;5003762;28;20366;-79
2023/10/04 10:14:35;;;;;;;16.15;9.23;;;;;;;21.07;48.09;64180.44;5004220;28;20335;-78
2023/10/04 10:17:02;;;;;;;21.13;9.75;;;;;;;21.17;47.42;64193.50;5001634;28;20207;-78
2023/10/04 10:19:30;;;;;;;16.35;10.23;;;;;;;21.13;47.34;64186.72;4999592;28;20237;-79
2023/10/04 10:22:08;;;;;;;16.45;10.20;;;;;;;21.27;47.77;64198.22;4996037;28;20272;-79
2023/10/04 10:24:36;;;;;;;18.55;8.93;;;;;;;21.42;46.47;64222.19;5002558;28;20297;-78
2023/10/04 10:27:09;;;;;;;13.25;8.82;;;;;;;21.51;46.46;64220.69;5000991;28;20305;-77
2023/10/04 10:29:37;;;;;;;15.38;9.75;;;;;;;21.66;45.65;64239.47;5001556;28;20244;-78
2023/10/04 10:32:13;;;;;;;17.92;9.18;;;;;;;21.85;45.33;64256.25;5004084;28;20214;-78
2023/10/04 10:34:40;;;;;;;15.13;8.43;;;;;;;22.08;45.78;64282.88;4997801;28;20555;-79
2023/10/04 10:37:18;;;;;;;14.23;8.55;;;;;;;22.22;44.92;64294.91;4996032;28;20206;-77
2023/10/04 10:39:46;;;;;;;14.60;8.10;;;;;;;22.26;43.92;64301.16;5002652;28;20223;-78
2023/10/04 10:42:16;;;;;;;16.10;8.95;;;;;;;22.27;43.65;64302.19;4999242;28;20234;-79
2023/10/04 10:44:44;;;;;;;14.50;9.32;;;;;;;22.43;43.70;64324.66;5003293;28;20262;-78
2023/10/04 10:47:18;;;;;;;12.55;8.02;;;;;;;22.50;43.47;64324.16;5003841;28;20199;-79
2023/10/04 10:49:55;;;;;;;12.23;8.38;;;;;;;22.65;43.49;64345.06;5000555;28;20290;-79
2023/10/04 10:52:25;;;;;;;21.42;9.18;;;;;;;22.56;42.64;64337.72;4993898;28;20210;-77
2023/10/04 10:54:52;;;;;;;14.13;8.15;;;;;;;22.44;42.59;64322.56;4999805;28;20230;-80
2023/10/04 10:57:21;;;;;;;16.50;8.10;;;;;;;22.66;41.95;64343.50;4999534;28;20199;-78
2023/10/04 10:59:52;;;;;;;12.73;8.43;;;;;;;22.75;40.99;64352.41;4999231;28;20223;-79
2023/10/04 11:02:19;;;;;;;10.48;7.13;;;;;;;22.90;40.32;64365.47;5000247;28;20320;-78
2023/10/04 11:04:46;;;;;;;10.70;7.70;;;;;;;22.80;40.07;64363.34;4995138;28;20227;-77
2023/10/04 11:07:17;;;;;;;13.80;7.78;;;;;;;22.89;41.15;64367.56;5002407;28;20506;-79
2023/10/04 11:09:49;;;;;;;14.30;6.55;;;;;;;23.07;40.01;64387.94;4997465;28;20223;-79
2023/10/04 11:12:19;;;;;;;8.75;5.18;;;;;;;23.16;34.63;64397.88;5003336;28;20225;-79
2023/10/04 11:14:47;;;;;;;11.23;5.18;;;;;;;23.03;33.89;64381.16;4997914;28;20224;-77
2023/10/04 11:17:15;;;;;;;6.85;4.70;;;;;;;23.09;33.20;64393.16;5001900;28;20461;-79
2023/10/04 11:19:43;;;;;;;6.30;4.57;;;;;;;23.30;32.92;64412.00;5000515;28;20291;-78
2023/10/04 11:22:12;;;;;;;10.32;5.45;;;;;;;23.32;32.75;64412.03;5001899;28;20238;-78
2023/10/04 11:24:40;;;;;;;6.75;4.70;;;;;;;23.30;33.53;64414.59;4995962;28;20238;-79
2023/10/04 11:27:08;;;;;;;9.10;5.70;;;;;;;23.47;33.06;64430.31;5003758;28;20218;-79
2023/10/04 11:29:36;;;;;;;7.80;5.57;;;;;;;23.58;33.17;64438.72;4996714;28;20289;-78